createdAt,value
2017-08-09T00:00:19.427Z,86
2017-08-09T00:01:21.946Z,86
2017-08-09T00:02:24.470Z,86
2017-08-09T00:03:26.970Z,85
2017-08-09T00:04:29.461Z,85
2017-08-09T00:05:31.959Z,85
2017-08-09T00:06:34.450Z,85
2017-08-09T00:07:36.959Z,85
2017-08-09T00:08:39.459Z,85
2017-08-09T00:09:42.297Z,85
2017-08-09T00:10:44.803Z,85
2017-08-09T00:11:47.304Z,85
2017-08-09T00:12:49.796Z,84
2017-08-09T00:13:52.293Z,84
2017-08-09T00:14:54.785Z,84
2017-08-09T00:15:57.956Z,84
2017-08-09T00:17:00.467Z,84
2017-08-09T00:18:02.984Z,84
2017-08-09T00:19:05.560Z,84
2017-08-09T00:20:08.395Z,84
2017-08-09T00:21:11.234Z,84
2017-08-09T00:22:13.809Z,83
2017-08-09T00:23:16.300Z,84
2017-08-09T00:24:19.813Z,83
2017-08-09T00:25:22.310Z,83
2017-08-09T00:26:24.803Z,83
2017-08-09T00:27:28.317Z,84
2017-08-09T00:28:30.858Z,84
2017-08-09T00:29:33.802Z,84
2017-08-09T00:30:36.335Z,84
2017-08-09T00:31:39.511Z,85
2017-08-09T00:32:42.038Z,84
2017-08-09T00:33:44.570Z,84
2017-08-09T00:34:47.068Z,84
2017-08-09T00:35:50.233Z,84
2017-08-09T00:36:52.736Z,84
2017-08-09T00:37:55.334Z,83
2017-08-09T00:38:57.829Z,83
2017-08-09T00:40:01.014Z,83
2017-08-09T00:41:04.282Z,82
2017-08-09T00:42:07.476Z,82
2017-08-09T00:43:09.963Z,82
2017-08-09T00:44:12.462Z,83
2017-08-09T00:45:15.087Z,83
2017-08-09T00:46:17.938Z,83
2017-08-09T00:47:20.423Z,82
2017-08-09T00:48:22.918Z,82
2017-08-09T00:49:25.750Z,82
2017-08-09T00:50:28.758Z,82
2017-08-09T00:51:31.261Z,82
2017-08-09T00:52:33.922Z,82
2017-08-09T00:53:36.460Z,82
2017-08-09T00:54:38.980Z,82
2017-08-09T00:55:41.496Z,82
2017-08-09T00:56:43.996Z,82
2017-08-09T00:57:46.502Z,82
2017-08-09T00:58:48.985Z,82
2017-08-09T00:59:51.486Z,82
2017-08-09T01:00:53.980Z,82
2017-08-09T01:01:57.142Z,82
2017-08-09T01:02:59.636Z,82
2017-08-09T01:04:02.603Z,82
2017-08-09T01:05:05.120Z,82
2017-08-09T01:06:08.240Z,82
2017-08-09T01:07:10.735Z,82
2017-08-09T01:08:13.215Z,82
2017-08-09T01:09:16.036Z,82
2017-08-09T01:10:18.534Z,83
2017-08-09T01:11:21.035Z,83
2017-08-09T01:12:23.883Z,83
2017-08-09T01:13:26.384Z,83
2017-08-09T01:14:28.896Z,83
2017-08-09T01:15:31.393Z,83
2017-08-09T01:16:33.891Z,83
2017-08-09T01:17:36.591Z,83
2017-08-09T01:18:39.085Z,83
2017-08-09T01:19:41.717Z,83
2017-08-09T01:20:44.573Z,83
2017-08-09T01:21:47.398Z,83
2017-08-09T01:22:50.562Z,83
2017-08-09T01:23:53.052Z,82
2017-08-09T01:24:55.559Z,82
2017-08-09T01:25:58.060Z,82
2017-08-09T01:27:00.525Z,82
2017-08-09T01:28:04.301Z,82
2017-08-09T01:29:07.162Z,82
2017-08-09T01:30:10.022Z,82
2017-08-09T01:31:12.502Z,82
2017-08-09T01:32:14.997Z,82
2017-08-09T01:33:17.838Z,83
2017-08-09T01:34:20.339Z,83
2017-08-09T01:35:23.176Z,82
2017-08-09T01:36:25.692Z,83
2017-08-09T01:37:28.509Z,83
2017-08-09T01:38:31.104Z,83
2017-08-09T01:39:33.587Z,83
2017-08-09T01:40:36.419Z,83
2017-08-09T01:41:39.255Z,83
2017-08-09T01:42:41.746Z,83
2017-08-09T01:43:44.228Z,83
2017-08-09T01:44:47.439Z,83
2017-08-09T01:45:49.922Z,83
2017-08-09T01:46:52.429Z,83
2017-08-09T01:47:54.927Z,83
2017-08-09T01:48:57.420Z,83
2017-08-09T01:49:59.910Z,83
2017-08-09T01:51:02.795Z,83
2017-08-09T01:52:05.377Z,83
2017-08-09T01:53:07.889Z,84
2017-08-09T01:54:10.840Z,84
2017-08-09T01:55:13.678Z,84
2017-08-09T01:56:16.164Z,84
2017-08-09T01:57:18.652Z,84
2017-08-09T01:58:21.151Z,84
2017-08-09T01:59:23.670Z,84
2017-08-09T02:00:26.512Z,84
2017-08-09T02:01:29.013Z,84
2017-08-09T02:02:31.827Z,84
2017-08-09T02:03:34.671Z,85
2017-08-09T02:04:37.668Z,85
2017-08-09T02:05:40.157Z,85
2017-08-09T02:06:42.646Z,85
2017-08-09T02:07:45.130Z,85
2017-08-09T02:08:47.619Z,85
2017-08-09T02:09:50.127Z,84
2017-08-09T02:10:52.626Z,85
2017-08-09T02:11:55.117Z,84
2017-08-09T02:12:57.612Z,85
2017-08-09T02:14:00.094Z,84
2017-08-09T02:15:02.590Z,84
2017-08-09T02:16:05.080Z,84
2017-08-09T02:17:07.558Z,84
2017-08-09T02:18:10.388Z,84
2017-08-09T02:19:13.591Z,84
2017-08-09T02:20:16.423Z,84
2017-08-09T02:21:19.268Z,84
2017-08-09T02:22:22.407Z,84
2017-08-09T02:23:24.898Z,85
2017-08-09T02:24:27.426Z,85
2017-08-09T02:25:30.263Z,85
2017-08-09T02:26:32.751Z,85
2017-08-09T02:27:35.255Z,85
2017-08-09T02:28:37.744Z,85
2017-08-09T02:29:40.360Z,85
2017-08-09T02:30:42.860Z,85
2017-08-09T02:31:45.690Z,85
2017-08-09T02:32:48.519Z,85
2017-08-09T02:33:51.721Z,85
2017-08-09T02:34:54.257Z,85
2017-08-09T02:35:57.112Z,85
2017-08-09T02:36:59.609Z,85
2017-08-09T02:38:02.121Z,85
2017-08-09T02:39:04.953Z,85
2017-08-09T02:40:08.138Z,85
2017-08-09T02:41:11.296Z,85
2017-08-09T02:42:14.131Z,85
2017-08-09T02:43:17.009Z,85
2017-08-09T02:44:19.504Z,85
2017-08-09T02:45:22.012Z,85
2017-08-09T02:46:24.504Z,85
2017-08-09T02:47:27.022Z,85
2017-08-09T02:48:30.733Z,85
2017-08-09T02:49:33.242Z,85
2017-08-09T02:50:35.725Z,85
2017-08-09T02:51:38.222Z,85
2017-08-09T02:52:40.735Z,85
2017-08-09T02:53:43.562Z,85
2017-08-09T02:54:46.059Z,85
2017-08-09T02:55:48.894Z,85
2017-08-09T02:56:51.393Z,85
2017-08-09T02:57:54.140Z,85
2017-08-09T02:58:56.635Z,85
2017-08-09T02:59:59.116Z,85
2017-08-09T03:01:01.628Z,84
2017-08-09T03:02:04.949Z,84
2017-08-09T03:03:07.442Z,84
2017-08-09T03:04:10.603Z,84
2017-08-09T03:05:13.102Z,84
2017-08-09T03:06:16.152Z,83
2017-08-09T03:07:18.665Z,83
2017-08-09T03:08:21.152Z,83
2017-08-09T03:09:23.699Z,83
2017-08-09T03:10:26.206Z,83
2017-08-09T03:11:28.791Z,83
2017-08-09T03:12:31.631Z,83
2017-08-09T03:13:34.453Z,84
2017-08-09T03:14:36.941Z,83
2017-08-09T03:15:39.429Z,83
2017-08-09T03:16:42.113Z,83
2017-08-09T03:17:44.615Z,83
2017-08-09T03:18:47.434Z,84
2017-08-09T03:19:49.931Z,84
2017-08-09T03:20:52.633Z,83
2017-08-09T03:21:55.463Z,83
2017-08-09T03:22:58.296Z,83
2017-08-09T03:24:00.789Z,84
2017-08-09T03:25:03.960Z,84
2017-08-09T03:26:06.580Z,84
2017-08-09T03:27:09.064Z,84
2017-08-09T03:28:11.554Z,84
2017-08-09T03:29:14.073Z,84
2017-08-09T03:30:16.923Z,83
2017-08-09T03:31:19.623Z,83
2017-08-09T03:32:22.136Z,83
2017-08-09T03:33:24.630Z,83
2017-08-09T03:34:27.135Z,83
2017-08-09T03:35:29.627Z,83
2017-08-09T03:36:32.129Z,83
2017-08-09T03:37:35.322Z,83
2017-08-09T03:38:37.891Z,83
2017-08-09T03:39:40.377Z,83
2017-08-09T03:40:43.209Z,84
2017-08-09T03:41:45.802Z,84
2017-08-09T03:42:48.308Z,84
2017-08-09T03:43:50.797Z,84
2017-08-09T03:44:53.647Z,84
2017-08-09T03:45:56.137Z,84
2017-08-09T03:46:58.640Z,84
2017-08-09T03:48:01.467Z,84
2017-08-09T03:49:03.970Z,84
2017-08-09T03:50:06.456Z,84
2017-08-09T03:51:09.641Z,85
2017-08-09T03:52:12.126Z,85
2017-08-09T03:53:14.620Z,85
2017-08-09T03:54:17.121Z,85
2017-08-09T03:55:19.967Z,86
2017-08-09T03:56:22.806Z,86
2017-08-09T03:57:25.297Z,86
2017-08-09T03:58:28.125Z,86
2017-08-09T03:59:30.605Z,87
2017-08-09T04:00:33.124Z,87
2017-08-09T04:01:35.629Z,87
2017-08-09T04:02:38.106Z,87
2017-08-09T04:03:40.952Z,87
2017-08-09T04:04:43.434Z,88
2017-08-09T04:05:45.927Z,88
2017-08-09T04:06:48.807Z,87
2017-08-09T04:07:51.626Z,88
2017-08-09T04:08:54.113Z,88
2017-08-09T04:09:56.616Z,88
2017-08-09T04:10:59.468Z,87
2017-08-09T04:12:02.304Z,87
2017-08-09T04:13:05.478Z,87
2017-08-09T04:14:08.303Z,87
2017-08-09T04:15:10.788Z,87
2017-08-09T04:16:13.305Z,87
2017-08-09T04:17:15.783Z,88
2017-08-09T04:18:18.265Z,88
2017-08-09T04:19:20.760Z,88
2017-08-09T04:20:23.253Z,88
2017-08-09T04:21:26.443Z,88
2017-08-09T04:22:30.300Z,88
2017-08-09T04:23:33.454Z,88
2017-08-09T04:24:35.950Z,88
2017-08-09T04:25:38.458Z,88
2017-08-09T04:26:40.936Z,88
2017-08-09T04:27:43.433Z,88
2017-08-09T04:28:45.909Z,87
2017-08-09T04:29:48.428Z,87
2017-08-09T04:30:50.923Z,87
2017-08-09T04:31:53.752Z,87
2017-08-09T04:32:56.251Z,87
2017-08-09T04:33:59.101Z,87
2017-08-09T04:35:01.620Z,87
2017-08-09T04:36:04.462Z,87
2017-08-09T04:37:06.945Z,87
2017-08-09T04:38:09.438Z,86
2017-08-09T04:39:12.267Z,86
2017-08-09T04:40:14.775Z,86
2017-08-09T04:41:17.601Z,86
2017-08-09T04:42:20.082Z,86
2017-08-09T04:43:22.581Z,86
2017-08-09T04:44:25.461Z,86
2017-08-09T04:45:27.963Z,86
2017-08-09T04:46:30.789Z,85
2017-08-09T04:47:33.280Z,85
2017-08-09T04:48:36.128Z,85
2017-08-09T04:49:38.646Z,85
2017-08-09T04:50:41.468Z,85
2017-08-09T04:51:43.979Z,85
2017-08-09T04:52:46.464Z,85
2017-08-09T04:53:48.959Z,85
2017-08-09T04:54:51.449Z,85
2017-08-09T04:55:54.306Z,85
2017-08-09T04:56:56.778Z,85
2017-08-09T04:57:59.279Z,85
2017-08-09T04:59:01.774Z,85
2017-08-09T05:00:04.620Z,85
2017-08-09T05:01:07.149Z,85
2017-08-09T05:02:09.665Z,85
2017-08-09T05:03:12.167Z,85
2017-08-09T05:04:14.634Z,85
2017-08-09T05:05:17.134Z,85
2017-08-09T05:06:19.960Z,85
2017-08-09T05:07:22.439Z,85
2017-08-09T05:08:25.308Z,85
2017-08-09T05:09:27.801Z,84
2017-08-09T05:10:31.312Z,85
2017-08-09T05:11:33.818Z,84
2017-08-09T05:12:36.973Z,85
2017-08-09T05:13:39.468Z,85
2017-08-09T05:14:42.321Z,85
2017-08-09T05:15:44.806Z,85
2017-08-09T05:16:47.641Z,85
2017-08-09T05:17:50.139Z,84
2017-08-09T05:18:52.626Z,84
2017-08-09T05:19:55.457Z,84
2017-08-09T05:20:57.959Z,84
2017-08-09T05:22:00.796Z,84
2017-08-09T05:23:03.655Z,84
2017-08-09T05:24:06.497Z,84
2017-08-09T05:25:08.980Z,84
2017-08-09T05:26:11.476Z,83
2017-08-09T05:27:13.983Z,83
2017-08-09T05:28:16.459Z,83
2017-08-09T05:29:18.954Z,83
2017-08-09T05:30:21.810Z,83
2017-08-09T05:31:24.643Z,83
2017-08-09T05:32:27.135Z,83
2017-08-09T05:33:29.626Z,83
2017-08-09T05:34:32.118Z,83
2017-08-09T05:35:34.998Z,83
2017-08-09T05:36:37.483Z,83
2017-08-09T05:37:40.302Z,82
2017-08-09T05:38:42.820Z,82
2017-08-09T05:39:45.674Z,82
2017-08-09T05:40:48.860Z,82
2017-08-09T05:41:51.355Z,82
2017-08-09T05:42:53.855Z,82
2017-08-09T05:43:56.672Z,82
2017-08-09T05:44:59.171Z,82
2017-08-09T05:46:01.672Z,81
2017-08-09T05:47:04.493Z,81
2017-08-09T05:48:07.706Z,81
2017-08-09T05:49:10.196Z,81
2017-08-09T05:50:12.706Z,81
2017-08-09T05:51:15.202Z,81
2017-08-09T05:52:17.705Z,81
2017-08-09T05:53:20.221Z,81
2017-08-09T05:54:22.728Z,80
2017-08-09T05:55:25.222Z,80
2017-08-09T05:56:28.045Z,80
2017-08-09T05:57:30.886Z,81
2017-08-09T05:58:33.717Z,80
2017-08-09T05:59:36.222Z,80
2017-08-09T06:00:39.057Z,80
2017-08-09T06:01:41.558Z,81
2017-08-09T06:02:44.065Z,81
2017-08-09T06:03:46.888Z,81
2017-08-09T06:04:49.388Z,81
2017-08-09T06:05:51.886Z,81
2017-08-09T06:06:54.376Z,81
2017-08-09T06:07:56.869Z,81
2017-08-09T06:08:59.714Z,81
2017-08-09T06:10:02.873Z,81
2017-08-09T06:11:05.385Z,81
2017-08-09T06:12:07.867Z,81
2017-08-09T06:13:10.371Z,81
2017-08-09T06:14:13.219Z,81
2017-08-09T06:15:15.704Z,81
2017-08-09T06:16:18.202Z,81
2017-08-09T06:17:20.688Z,81
2017-08-09T06:18:23.520Z,81
2017-08-09T06:19:26.038Z,81
2017-08-09T06:20:28.521Z,81
2017-08-09T06:21:31.366Z,81
2017-08-09T06:22:33.892Z,81
2017-08-09T06:23:36.385Z,81
2017-08-09T06:24:39.222Z,81
2017-08-09T06:25:42.044Z,81
2017-08-09T06:26:44.911Z,81
2017-08-09T06:27:47.397Z,80
2017-08-09T06:28:50.230Z,80
2017-08-09T06:29:53.088Z,80
2017-08-09T06:30:55.580Z,80
2017-08-09T06:31:58.073Z,80
2017-08-09T06:33:00.567Z,80
2017-08-09T06:34:03.394Z,80
2017-08-09T06:35:05.890Z,80
2017-08-09T06:36:08.378Z,80
2017-08-09T06:37:10.857Z,80
2017-08-09T06:38:13.348Z,80
2017-08-09T06:39:16.192Z,80
2017-08-09T06:40:19.041Z,80
2017-08-09T06:41:21.548Z,80
2017-08-09T06:42:24.034Z,80
2017-08-09T06:43:26.531Z,80
2017-08-09T06:44:29.041Z,80
2017-08-09T06:45:31.543Z,80
2017-08-09T06:46:34.376Z,80
2017-08-09T06:47:36.869Z,79
2017-08-09T06:48:39.366Z,79
2017-08-09T06:49:41.852Z,79
2017-08-09T06:50:44.345Z,80
2017-08-09T06:51:46.813Z,79
2017-08-09T06:52:49.646Z,79
2017-08-09T06:53:52.493Z,79
2017-08-09T06:54:55.323Z,78
2017-08-09T06:55:57.816Z,79
2017-08-09T06:57:00.331Z,79
2017-08-09T06:58:03.163Z,78
2017-08-09T06:59:06.000Z,78
2017-08-09T07:00:08.494Z,78
2017-08-09T07:01:10.985Z,78
2017-08-09T07:02:13.492Z,78
2017-08-09T07:03:15.994Z,78
2017-08-09T07:04:18.508Z,77
2017-08-09T07:05:21.347Z,77
2017-08-09T07:06:23.861Z,78
2017-08-09T07:07:26.356Z,77
2017-08-09T07:08:28.843Z,77
2017-08-09T07:09:31.335Z,77
2017-08-09T07:10:33.841Z,77
2017-08-09T07:11:36.335Z,77
2017-08-09T07:12:39.514Z,77
2017-08-09T07:13:42.010Z,76
2017-08-09T07:14:45.201Z,77
2017-08-09T07:15:47.711Z,76
2017-08-09T07:16:50.576Z,76
2017-08-09T07:17:53.410Z,76
2017-08-09T07:18:55.907Z,75
2017-08-09T07:19:58.389Z,75
2017-08-09T07:21:01.223Z,75
2017-08-09T07:22:04.060Z,74
2017-08-09T07:23:06.553Z,75
2017-08-09T07:24:09.042Z,75
2017-08-09T07:25:11.555Z,75
2017-08-09T07:26:14.378Z,74
2017-08-09T07:27:17.536Z,73
2017-08-09T07:28:20.041Z,74
2017-08-09T07:29:22.543Z,75
2017-08-09T07:30:25.036Z,73
2017-08-09T07:31:27.533Z,72
2017-08-09T07:32:30.363Z,73
2017-08-09T07:33:32.860Z,73
2017-08-09T07:34:35.360Z,73
2017-08-09T07:35:38.181Z,72
2017-08-09T07:36:40.674Z,73
2017-08-09T07:37:43.488Z,71
2017-08-09T07:38:45.998Z,72
2017-08-09T07:39:48.857Z,72
2017-08-09T07:40:51.384Z,73
2017-08-09T07:41:53.890Z,74
2017-08-09T07:42:56.744Z,72
2017-08-09T07:43:59.244Z,72
2017-08-09T07:45:01.741Z,71
2017-08-09T07:46:04.901Z,70
2017-08-09T07:47:07.392Z,70
2017-08-09T07:48:09.882Z,70
2017-08-09T07:49:12.373Z,69
2017-08-09T07:50:14.863Z,68
2017-08-09T07:51:17.376Z,69
2017-08-09T07:52:19.863Z,69
2017-08-09T07:53:22.368Z,70
2017-08-09T07:54:24.852Z,68
2017-08-09T07:55:27.352Z,68
2017-08-09T07:56:29.883Z,69
2017-08-09T07:57:32.411Z,68
2017-08-09T07:58:34.899Z,67
2017-08-09T07:59:37.755Z,68
2017-08-09T08:00:40.272Z,68
2017-08-09T08:01:42.772Z,68
2017-08-09T08:02:45.256Z,67
2017-08-09T08:03:47.767Z,65
2017-08-09T08:04:50.609Z,67
2017-08-09T08:05:53.120Z,65
2017-08-09T08:06:55.623Z,67
2017-08-09T08:07:58.113Z,66
2017-08-09T08:09:00.611Z,66
2017-08-09T08:10:03.458Z,68
2017-08-09T08:11:06.284Z,66
2017-08-09T08:12:08.797Z,65
2017-08-09T08:13:11.971Z,66
2017-08-09T08:14:14.465Z,66
2017-08-09T08:15:17.323Z,64
2017-08-09T08:16:19.834Z,65
2017-08-09T08:17:22.326Z,65
2017-08-09T08:18:24.835Z,66
2017-08-09T08:19:27.357Z,66
2017-08-09T08:20:29.864Z,63
2017-08-09T08:21:32.360Z,62
2017-08-09T08:22:34.847Z,63
2017-08-09T08:23:37.348Z,61
2017-08-09T08:24:39.861Z,62
2017-08-09T08:25:42.337Z,61
2017-08-09T08:26:44.856Z,60
2017-08-09T08:27:47.689Z,59
2017-08-09T08:28:50.176Z,61
2017-08-09T08:29:52.676Z,60
2017-08-09T08:30:55.184Z,60
2017-08-09T08:31:57.666Z,57
2017-08-09T08:33:00.182Z,59
2017-08-09T08:34:02.662Z,59
2017-08-09T08:35:05.169Z,59
2017-08-09T08:36:07.697Z,61
2017-08-09T08:37:10.196Z,59
2017-08-09T08:38:13.043Z,57
2017-08-09T08:39:16.231Z,55
2017-08-09T08:40:19.087Z,56
2017-08-09T08:41:21.621Z,57
2017-08-09T08:42:24.129Z,56
2017-08-09T08:43:26.631Z,57
2017-08-09T08:44:29.155Z,59
2017-08-09T08:45:31.653Z,60
2017-08-09T08:46:34.158Z,60
2017-08-09T08:47:37.018Z,60
2017-08-09T08:48:39.507Z,56
2017-08-09T08:49:42.017Z,55
2017-08-09T08:50:44.534Z,56
2017-08-09T08:51:47.029Z,55
2017-08-09T08:52:49.519Z,55
2017-08-09T08:53:52.029Z,55
2017-08-09T08:54:54.539Z,55
2017-08-09T08:55:57.381Z,54
2017-08-09T08:57:00.232Z,54
2017-08-09T08:58:02.735Z,54
2017-08-09T08:59:05.580Z,54
2017-08-09T09:00:08.072Z,54
2017-08-09T09:01:10.588Z,54
2017-08-09T09:02:13.097Z,54
2017-08-09T09:03:15.944Z,54
2017-08-09T09:04:18.444Z,53
2017-08-09T09:05:20.939Z,53
2017-08-09T09:06:23.429Z,53
2017-08-09T09:07:25.934Z,53
2017-08-09T09:08:28.432Z,49
2017-08-09T09:09:30.933Z,53
2017-08-09T09:10:33.767Z,52
2017-08-09T09:11:36.272Z,53
2017-08-09T09:12:38.781Z,53
2017-08-09T09:13:41.635Z,57
2017-08-09T09:14:44.131Z,53
2017-08-09T09:15:46.655Z,52
2017-08-09T09:16:49.175Z,51
2017-08-09T09:17:52.029Z,50
2017-08-09T09:18:54.880Z,50
2017-08-09T09:19:57.739Z,50
2017-08-09T09:21:00.365Z,50
2017-08-09T09:22:03.507Z,49
2017-08-09T09:23:06.344Z,51
2017-08-09T09:24:08.868Z,53
2017-08-09T09:25:11.372Z,48
2017-08-09T09:26:13.869Z,49
2017-08-09T09:27:16.380Z,47
2017-08-09T09:28:18.865Z,48
2017-08-09T09:29:21.373Z,48
2017-08-09T09:30:24.220Z,48
2017-08-09T09:31:26.723Z,48
2017-08-09T09:32:29.238Z,49
2017-08-09T09:33:32.097Z,47
2017-08-09T09:34:34.935Z,47
2017-08-09T09:35:37.464Z,49
2017-08-09T09:36:39.981Z,48
2017-08-09T09:37:42.835Z,49
2017-08-09T09:38:45.343Z,50
2017-08-09T09:39:47.849Z,48
2017-08-09T09:40:50.362Z,48
2017-08-09T09:41:52.880Z,46
2017-08-09T09:42:55.744Z,45
2017-08-09T09:43:58.241Z,47
2017-08-09T09:45:01.464Z,47
2017-08-09T09:46:03.981Z,47
2017-08-09T09:47:06.557Z,48
2017-08-09T09:48:09.423Z,46
2017-08-09T09:49:12.627Z,47
2017-08-09T09:50:15.156Z,47
2017-08-09T09:51:18.020Z,50
2017-08-09T09:52:20.571Z,48
2017-08-09T09:53:23.075Z,49
2017-08-09T09:54:25.583Z,51
2017-08-09T09:55:28.496Z,48
2017-08-09T09:56:31.049Z,49
2017-08-09T09:57:33.576Z,48
2017-08-09T09:58:36.122Z,52
2017-08-09T09:59:38.629Z,48
2017-08-09T10:00:42.195Z,47
2017-08-09T10:01:45.043Z,48
2017-08-09T10:02:47.606Z,49
2017-08-09T10:03:50.117Z,47
2017-08-09T10:04:52.654Z,48
2017-08-09T10:05:55.168Z,48
2017-08-09T10:06:57.777Z,48
2017-08-09T10:08:00.376Z,48
2017-08-09T10:09:03.256Z,49
2017-08-09T10:10:06.244Z,48
2017-08-09T10:11:08.785Z,48
2017-08-09T10:12:11.642Z,48
2017-08-09T10:13:14.160Z,48
2017-08-09T10:14:17.071Z,49
2017-08-09T10:15:19.949Z,49
2017-08-09T10:16:22.470Z,49
2017-08-09T10:17:25.354Z,48
2017-08-09T10:18:27.869Z,49
2017-08-09T10:19:30.702Z,49
2017-08-09T10:20:33.426Z,49
2017-08-09T10:21:36.651Z,48
2017-08-09T10:22:39.524Z,49
2017-08-09T10:23:42.073Z,50
2017-08-09T10:24:44.727Z,49
2017-08-09T10:25:47.299Z,50
2017-08-09T10:26:50.143Z,51
2017-08-09T10:27:52.643Z,48
2017-08-09T10:28:55.159Z,48
2017-08-09T10:29:57.693Z,48
2017-08-09T10:31:00.544Z,49
2017-08-09T10:32:03.584Z,50
2017-08-09T10:33:06.096Z,50
2017-08-09T10:34:09.068Z,49
2017-08-09T10:35:11.665Z,50
2017-08-09T10:36:14.307Z,50
2017-08-09T10:37:16.801Z,52
2017-08-09T10:38:19.780Z,52
2017-08-09T10:39:22.300Z,47
2017-08-09T10:40:24.882Z,49
2017-08-09T10:41:27.386Z,48
2017-08-09T10:42:29.925Z,49
2017-08-09T10:43:32.613Z,50
2017-08-09T10:44:35.147Z,50
2017-08-09T10:45:37.656Z,50
2017-08-09T10:46:40.180Z,51
2017-08-09T10:47:42.815Z,52
2017-08-09T10:48:45.353Z,52
2017-08-09T10:49:48.587Z,53
2017-08-09T10:50:51.149Z,52
2017-08-09T10:51:54.015Z,54
2017-08-09T10:52:56.647Z,52
2017-08-09T10:53:59.141Z,50
2017-08-09T10:55:01.709Z,53
2017-08-09T10:56:04.915Z,50
2017-08-09T10:57:07.551Z,48
2017-08-09T10:58:10.146Z,47
2017-08-09T10:59:13.132Z,48
2017-08-09T11:00:16.073Z,48
2017-08-09T11:01:19.524Z,48
2017-08-09T11:02:22.509Z,49
2017-08-09T11:03:25.629Z,48
2017-08-09T11:04:28.875Z,49
2017-08-09T11:05:31.494Z,49
2017-08-09T11:06:34.083Z,48
2017-08-09T11:07:36.579Z,48
2017-08-09T11:08:39.533Z,49
2017-08-09T11:09:42.196Z,50
2017-08-09T11:10:45.354Z,48
2017-08-09T11:11:48.017Z,49
2017-08-09T11:12:51.892Z,49
2017-08-09T11:13:54.798Z,48
2017-08-09T11:14:58.195Z,49
2017-08-09T11:16:00.696Z,49
2017-08-09T11:17:03.836Z,50
2017-08-09T11:18:07.054Z,50
2017-08-09T11:19:09.721Z,50
2017-08-09T11:20:12.696Z,50
2017-08-09T11:21:15.434Z,51
2017-08-09T11:22:17.958Z,51
2017-08-09T11:23:20.463Z,51
2017-08-09T11:24:23.126Z,51
2017-08-09T11:25:25.630Z,51
2017-08-09T11:26:28.472Z,53
2017-08-09T11:27:30.984Z,54
2017-08-09T11:28:33.488Z,55
2017-08-09T11:29:35.993Z,55
2017-08-09T11:30:38.488Z,54
2017-08-09T11:31:41.379Z,55
2017-08-09T11:32:43.953Z,57
2017-08-09T11:33:46.601Z,57
2017-08-09T11:34:49.856Z,56
2017-08-09T11:35:53.231Z,57
2017-08-09T11:36:56.331Z,55
2017-08-09T11:37:59.209Z,53
2017-08-09T11:39:02.030Z,53
2017-08-09T11:40:05.323Z,54
2017-08-09T11:41:08.152Z,53
2017-08-09T11:42:11.366Z,51
2017-08-09T11:43:14.113Z,52
2017-08-09T11:44:16.783Z,49
2017-08-09T11:45:19.766Z,50
2017-08-09T11:46:22.773Z,51
2017-08-09T11:47:25.774Z,49
2017-08-09T11:48:28.442Z,50
2017-08-09T11:49:30.954Z,50
2017-08-09T11:50:34.039Z,50
2017-08-09T11:51:36.918Z,49
2017-08-09T11:52:39.776Z,49
2017-08-09T11:53:42.295Z,49
2017-08-09T11:54:45.143Z,48
2017-08-09T11:55:47.656Z,49
2017-08-09T11:56:50.529Z,50
2017-08-09T11:57:53.024Z,50
2017-08-09T11:58:56.211Z,50
2017-08-09T11:59:58.721Z,50
2017-08-09T12:01:01.221Z,48
2017-08-09T12:02:03.733Z,49
2017-08-09T12:03:06.238Z,50
2017-08-09T12:04:09.056Z,51
2017-08-09T12:05:11.563Z,51
2017-08-09T12:06:14.057Z,50
2017-08-09T12:07:17.027Z,50
2017-08-09T12:08:19.865Z,51
2017-08-09T12:09:22.346Z,51
2017-08-09T12:10:25.219Z,51
2017-08-09T12:11:28.081Z,55
2017-08-09T12:12:30.576Z,54
2017-08-09T12:13:33.423Z,53
2017-08-09T12:14:36.390Z,51
2017-08-09T12:15:39.225Z,54
2017-08-09T12:16:42.087Z,52
2017-08-09T12:17:45.305Z,51
2017-08-09T12:18:47.805Z,50
2017-08-09T12:19:50.657Z,50
2017-08-09T12:20:53.608Z,49
2017-08-09T12:21:57.003Z,49
2017-08-09T12:22:59.507Z,51
2017-08-09T12:24:02.355Z,52
2017-08-09T12:25:06.527Z,50
2017-08-09T12:26:09.027Z,51
2017-08-09T12:27:11.823Z,52
2017-08-09T12:28:14.308Z,54
2017-08-09T12:29:17.166Z,55
2017-08-09T12:30:19.685Z,56
2017-08-09T12:31:22.184Z,56
2017-08-09T12:32:25.463Z,54
2017-08-09T12:33:27.964Z,54
2017-08-09T12:34:30.458Z,55
2017-08-09T12:35:32.968Z,56
2017-08-09T12:36:35.813Z,55
2017-08-09T12:37:39.026Z,56
2017-08-09T12:38:41.545Z,56
2017-08-09T12:39:44.069Z,55
2017-08-09T12:40:47.264Z,57
2017-08-09T12:41:50.131Z,55
2017-08-09T12:42:52.964Z,57
2017-08-09T12:43:55.470Z,55
2017-08-09T12:44:57.994Z,55
2017-08-09T12:46:00.499Z,55
2017-08-09T12:47:03.698Z,56
2017-08-09T12:48:06.213Z,55
2017-08-09T12:49:08.730Z,56
2017-08-09T12:50:11.231Z,54
2017-08-09T12:51:13.743Z,53
2017-08-09T12:52:16.247Z,54
2017-08-09T12:53:18.766Z,57
2017-08-09T12:54:21.604Z,55
2017-08-09T12:55:24.447Z,54
2017-08-09T12:56:26.952Z,54
2017-08-09T12:57:29.461Z,54
2017-08-09T12:58:31.974Z,53
2017-08-09T12:59:34.467Z,51
2017-08-09T13:00:36.978Z,52
2017-08-09T13:01:39.481Z,51
2017-08-09T13:02:41.975Z,52
2017-08-09T13:03:44.480Z,52
2017-08-09T13:04:47.329Z,51
2017-08-09T13:05:49.820Z,52
2017-08-09T13:06:52.324Z,53
2017-08-09T13:07:55.158Z,54
2017-08-09T13:08:57.995Z,56
2017-08-09T13:10:00.864Z,56
2017-08-09T13:11:03.354Z,57
2017-08-09T13:12:06.197Z,56
2017-08-09T13:13:09.037Z,56
2017-08-09T13:14:11.882Z,57
2017-08-09T13:15:14.383Z,57
2017-08-09T13:16:16.885Z,54
2017-08-09T13:17:19.712Z,55
2017-08-09T13:18:22.228Z,56
2017-08-09T13:19:24.732Z,54
2017-08-09T13:20:27.236Z,53
2017-08-09T13:21:29.735Z,53
2017-08-09T13:22:32.249Z,55
2017-08-09T13:23:34.758Z,54
2017-08-09T13:24:37.251Z,56
2017-08-09T13:25:39.763Z,53
2017-08-09T13:26:42.265Z,57
2017-08-09T13:27:45.440Z,58
2017-08-09T13:28:47.979Z,61
2017-08-09T13:29:50.836Z,59
2017-08-09T13:30:53.337Z,57
2017-08-09T13:31:56.187Z,53
2017-08-09T13:32:58.689Z,55
2017-08-09T13:34:01.188Z,57
2017-08-09T13:35:04.047Z,58
2017-08-09T13:36:06.915Z,58
2017-08-09T13:37:09.753Z,56
2017-08-09T13:38:12.299Z,59
2017-08-09T13:39:15.483Z,56
2017-08-09T13:40:18.345Z,58
2017-08-09T13:41:20.858Z,55
2017-08-09T13:42:23.370Z,56
2017-08-09T13:43:26.571Z,55
2017-08-09T13:44:29.099Z,55
2017-08-09T13:45:32.292Z,53
2017-08-09T13:46:34.804Z,52
2017-08-09T13:47:37.307Z,52
2017-08-09T13:48:39.809Z,52
2017-08-09T13:49:42.317Z,50
2017-08-09T13:50:45.146Z,50
2017-08-09T13:51:47.644Z,51
2017-08-09T13:52:50.133Z,49
2017-08-09T13:53:52.659Z,49
2017-08-09T13:54:55.165Z,51
2017-08-09T13:55:57.673Z,49
2017-08-09T13:57:00.191Z,50
2017-08-09T13:58:03.389Z,50
2017-08-09T13:59:06.238Z,51
2017-08-09T14:00:09.107Z,49
2017-08-09T14:01:12.284Z,49
2017-08-09T14:02:15.483Z,50
2017-08-09T14:03:18.000Z,49
2017-08-09T14:04:20.862Z,48
2017-08-09T14:05:23.361Z,46
2017-08-09T14:06:25.877Z,47
2017-08-09T14:07:28.373Z,49
2017-08-09T14:08:31.234Z,48
2017-08-09T14:09:34.427Z,48
2017-08-09T14:10:36.927Z,50
2017-08-09T14:11:39.444Z,51
2017-08-09T14:12:41.966Z,51
2017-08-09T14:13:44.471Z,51
2017-08-09T14:14:47.327Z,53
2017-08-09T14:15:49.818Z,51
2017-08-09T14:16:52.325Z,51
2017-08-09T14:17:55.174Z,50
2017-08-09T14:18:57.675Z,50
2017-08-09T14:20:00.227Z,50
2017-08-09T14:21:03.098Z,51
2017-08-09T14:22:06.350Z,52
2017-08-09T14:23:09.200Z,52
2017-08-09T14:24:12.075Z,47
2017-08-09T14:25:14.963Z,48
2017-08-09T14:26:17.800Z,46
2017-08-09T14:27:20.306Z,46
2017-08-09T14:28:22.816Z,46
2017-08-09T14:29:25.309Z,47
2017-08-09T14:30:28.155Z,47
2017-08-09T14:31:30.663Z,49
2017-08-09T14:32:33.161Z,48
2017-08-09T14:33:35.676Z,49
2017-08-09T14:34:38.190Z,48
2017-08-09T14:35:40.698Z,50
2017-08-09T14:36:43.192Z,49
2017-08-09T14:37:46.044Z,49
2017-08-09T14:38:48.912Z,49
2017-08-09T14:39:51.758Z,49
2017-08-09T14:40:54.279Z,50
2017-08-09T14:41:57.111Z,51
2017-08-09T14:42:59.636Z,49
2017-08-09T14:44:02.146Z,49
2017-08-09T14:45:05.354Z,48
2017-08-09T14:46:07.868Z,49
2017-08-09T14:47:10.384Z,48
2017-08-09T14:48:13.222Z,48
2017-08-09T14:49:15.744Z,49
2017-08-09T14:50:18.250Z,49
2017-08-09T14:51:20.753Z,48
2017-08-09T14:52:23.280Z,47
2017-08-09T14:53:25.791Z,49